createdAt,value
2023-03-02T00:01:31.035Z,100.00
2023-03-02T00:03:58.657Z,100.00
2023-03-02T00:06:25.234Z,100.00
2023-03-02T00:08:52.880Z,100.00
2023-03-02T00:11:19.239Z,100.00
2023-03-02T00:13:45.726Z,100.00
2023-03-02T00:16:12.017Z,100.00
2023-03-02T00:18:38.316Z,100.00
2023-03-02T00:21:04.809Z,100.00
2023-03-02T00:23:31.145Z,100.00
2023-03-02T00:25:58.789Z,100.00
2023-03-02T00:28:25.115Z,100.00
2023-03-02T00:30:51.415Z,100.00
2023-03-02T00:33:17.722Z,100.00
2023-03-02T00:35:44.057Z,100.00
2023-03-02T00:38:10.362Z,100.00
2023-03-02T00:40:36.826Z,100.00
2023-03-02T00:43:04.456Z,100.00
2023-03-02T00:45:30.790Z,100.00
2023-03-02T00:47:57.090Z,100.00
2023-03-02T00:50:23.546Z,100.00
2023-03-02T00:52:49.841Z,100.00
2023-03-02T00:55:16.202Z,100.00
2023-03-02T00:57:42.527Z,100.00
2023-03-02T01:00:11.086Z,100.00
2023-03-02T01:02:37.527Z,100.00
2023-03-02T01:05:04.206Z,100.00
2023-03-02T01:07:30.585Z,100.00
2023-03-02T01:09:56.918Z,100.00
2023-03-02T01:12:23.271Z,100.00
2023-03-02T01:14:49.559Z,100.00
2023-03-02T01:17:17.563Z,100.00
2023-03-02T01:19:43.893Z,100.00
2023-03-02T01:22:10.230Z,100.00
2023-03-02T01:24:36.586Z,100.00
2023-03-02T01:27:03.000Z,100.00
2023-03-02T01:29:29.534Z,100.00
2023-03-02T01:31:55.942Z,100.00
2023-03-02T01:34:23.739Z,100.00
2023-03-02T01:36:50.081Z,100.00
2023-03-02T01:39:16.422Z,100.00
2023-03-02T01:41:43.140Z,100.00
2023-03-02T01:44:24.350Z,100.00
2023-03-02T01:46:50.732Z,100.00
2023-03-02T01:49:17.097Z,100.00
2023-03-02T01:51:47.340Z,100.00
2023-03-02T01:54:14.916Z,100.00
2023-03-02T01:56:41.309Z,100.00
2023-03-02T01:59:09.202Z,100.00
2023-03-02T02:01:37.770Z,100.00
2023-03-02T02:04:04.615Z,100.00
2023-03-02T02:06:32.655Z,100.00
2023-03-02T02:09:01.233Z,100.00
2023-03-02T02:11:27.827Z,100.00
2023-03-02T02:13:56.477Z,100.00
2023-03-02T02:16:22.910Z,100.00
2023-03-02T02:18:49.319Z,100.00
2023-03-02T02:21:16.215Z,100.00
2023-03-02T02:23:45.875Z,100.00
2023-03-02T02:26:15.359Z,100.00
2023-03-02T02:28:43.662Z,100.00
2023-03-02T02:31:13.369Z,100.00
2023-03-02T02:33:40.946Z,100.00
2023-03-02T02:36:09.327Z,100.00
2023-03-02T02:38:37.090Z,100.00
2023-03-02T02:41:05.178Z,100.00
2023-03-02T02:43:32.923Z,100.00
2023-03-02T02:46:00.489Z,100.00
2023-03-02T02:48:28.004Z,100.00
2023-03-02T02:50:54.481Z,100.00
2023-03-02T02:53:24.534Z,100.00
2023-03-02T02:55:52.027Z,100.00
2023-03-02T02:58:25.317Z,100.00
2023-03-02T03:00:53.025Z,100.00
2023-03-02T03:03:24.304Z,100.00
2023-03-02T03:05:50.658Z,100.00
2023-03-02T03:08:31.863Z,100.00
2023-03-02T03:10:58.468Z,100.00
2023-03-02T03:13:24.844Z,100.00
2023-03-02T03:15:51.236Z,100.00
2023-03-02T03:18:23.571Z,100.00
2023-03-02T03:20:49.934Z,100.00
2023-03-02T03:23:16.266Z,100.00
2023-03-02T03:25:42.586Z,100.00
2023-03-02T03:28:08.886Z,100.00
2023-03-02T03:30:35.211Z,100.00
2023-03-02T03:33:01.537Z,100.00
2023-03-02T03:35:29.189Z,100.00
2023-03-02T03:37:55.502Z,100.00
2023-03-02T03:40:21.819Z,100.00
2023-03-02T03:42:48.150Z,100.00
2023-03-02T03:45:14.563Z,100.00
2023-03-02T03:47:40.858Z,100.00
2023-03-02T03:50:07.471Z,100.00
2023-03-02T03:52:35.191Z,100.00
2023-03-02T03:55:01.865Z,100.00
2023-03-02T03:57:28.204Z,100.00
2023-03-02T03:59:54.586Z,100.00
2023-03-02T04:02:21.344Z,100.00
2023-03-02T04:04:47.808Z,100.00
2023-03-02T04:07:14.451Z,100.00
2023-03-02T04:09:42.391Z,100.00
2023-03-02T04:12:09.084Z,100.00
2023-03-02T04:14:35.416Z,100.00
2023-03-02T04:17:01.869Z,100.00
2023-03-02T04:19:28.162Z,100.00
2023-03-02T04:21:54.909Z,100.00
2023-03-02T04:24:22.211Z,100.00
2023-03-02T04:26:50.030Z,100.00
2023-03-02T04:29:16.924Z,100.00
2023-03-02T04:31:43.370Z,100.00
2023-03-02T04:34:09.731Z,100.00
2023-03-02T04:36:37.980Z,100.00
2023-03-02T04:39:05.127Z,100.00
2023-03-02T04:41:31.985Z,100.00
2023-03-02T04:43:59.656Z,100.00
2023-03-02T04:46:26.845Z,100.00
2023-03-02T04:48:53.839Z,100.00
2023-03-02T04:51:21.378Z,100.00
2023-03-02T04:53:47.725Z,100.00
2023-03-02T04:56:14.053Z,100.00
2023-03-02T04:58:40.387Z,100.00
2023-03-02T05:01:09.162Z,100.00
2023-03-02T05:03:35.580Z,100.00
2023-03-02T05:06:02.106Z,100.00
2023-03-02T05:08:28.586Z,100.00
2023-03-02T05:10:54.997Z,100.00
2023-03-02T05:13:21.405Z,100.00
2023-03-02T05:15:47.800Z,100.00
2023-03-02T05:18:15.513Z,100.00
2023-03-02T05:20:41.813Z,100.00
2023-03-02T05:23:09.698Z,100.00
2023-03-02T05:25:37.860Z,100.00
2023-03-02T05:28:04.809Z,100.00
2023-03-02T05:30:31.520Z,100.00
2023-03-02T05:32:57.863Z,100.00
2023-03-02T05:35:25.594Z,100.00
2023-03-02T05:37:52.004Z,100.00
2023-03-02T05:40:19.270Z,100.00
2023-03-02T05:42:46.221Z,100.00
2023-03-02T05:45:17.631Z,100.00
2023-03-02T05:47:43.979Z,100.00
2023-03-02T05:50:10.943Z,100.00
2023-03-02T05:52:38.585Z,100.00
2023-03-02T05:55:05.223Z,100.00
2023-03-02T05:57:31.529Z,100.00
2023-03-02T05:59:57.859Z,100.00
2023-03-02T06:02:24.190Z,100.00
2023-03-02T06:04:50.515Z,100.00
2023-03-02T06:07:16.834Z,100.00
2023-03-02T06:09:44.529Z,100.00
2023-03-02T06:12:10.883Z,100.00
2023-03-02T06:14:37.215Z,100.00
2023-03-02T06:17:03.532Z,100.00
2023-03-02T06:19:29.831Z,100.00
2023-03-02T06:21:56.246Z,100.00
2023-03-02T06:24:22.554Z,100.00
2023-03-02T06:26:50.217Z,100.00
2023-03-02T06:29:16.526Z,100.00
2023-03-02T06:31:42.978Z,100.00
2023-03-02T06:34:09.280Z,100.00
2023-03-02T06:36:35.926Z,100.00
2023-03-02T06:39:02.461Z,100.00
2023-03-02T06:41:28.780Z,100.00
2023-03-02T06:43:56.414Z,100.00
2023-03-02T06:46:22.764Z,100.00
2023-03-02T06:48:49.121Z,100.00
2023-03-02T06:51:15.425Z,100.00
2023-03-02T06:53:41.740Z,100.00
2023-03-02T06:56:08.164Z,100.00
2023-03-02T06:58:34.950Z,100.00
2023-03-02T07:01:02.708Z,100.00
2023-03-02T07:03:29.121Z,100.00
2023-03-02T07:05:55.471Z,100.00
2023-03-02T07:08:21.783Z,100.00
2023-03-02T07:10:48.106Z,100.00
2023-03-02T07:13:14.451Z,100.00
2023-03-02T07:15:40.754Z,100.00
2023-03-02T07:18:08.459Z,100.00
2023-03-02T07:20:34.839Z,100.00
2023-03-02T07:23:01.183Z,100.00
2023-03-02T07:25:27.596Z,100.00
2023-03-02T07:27:53.914Z,100.00
2023-03-02T07:30:20.339Z,100.00
2023-03-02T07:32:46.666Z,100.00
2023-03-02T07:35:14.401Z,100.00
2023-03-02T07:37:40.729Z,100.00
2023-03-02T07:40:07.563Z,100.00
2023-03-02T07:42:33.921Z,100.00
2023-03-02T07:45:00.252Z,100.00
2023-03-02T07:47:26.609Z,100.00
2023-03-02T07:49:52.938Z,100.00
2023-03-02T07:52:20.607Z,100.00
2023-03-02T07:54:46.946Z,100.00
2023-03-02T07:57:13.247Z,100.00
2023-03-02T07:59:39.572Z,100.00
2023-03-02T08:02:05.920Z,100.00
2023-03-02T08:04:34.267Z,100.00
2023-03-02T08:07:00.633Z,100.00
2023-03-02T08:09:28.308Z,100.00
2023-03-02T08:11:54.622Z,100.00
2023-03-02T08:14:20.983Z,100.00
2023-03-02T08:16:47.312Z,100.00
2023-03-02T08:19:13.612Z,100.00
2023-03-02T08:21:39.912Z,100.00
2023-03-02T08:24:06.552Z,100.00
2023-03-02T08:26:34.166Z,100.00
2023-03-02T08:29:00.489Z,100.00
2023-03-02T08:31:26.923Z,100.00
2023-03-02T08:33:53.547Z,100.00
2023-03-02T08:36:19.881Z,100.00
2023-03-02T08:38:46.820Z,100.00
2023-03-02T08:41:14.883Z,100.00
2023-03-02T08:43:42.568Z,100.00
2023-03-02T08:46:10.097Z,100.00
2023-03-02T08:48:36.519Z,100.00
2023-03-02T08:51:04.078Z,100.00
2023-03-02T08:53:31.561Z,100.00
2023-03-02T08:55:58.223Z,100.00
2023-03-02T08:58:24.861Z,100.00
2023-03-02T09:00:52.765Z,100.00
2023-03-02T09:03:19.148Z,100.00
2023-03-02T09:05:45.822Z,100.00
2023-03-02T09:08:12.112Z,100.00
2023-03-02T09:10:38.897Z,100.00
2023-03-02T09:13:06.842Z,100.00
2023-03-02T09:15:34.656Z,100.00
2023-03-02T09:18:02.401Z,100.00
2023-03-02T09:20:28.753Z,100.00
2023-03-02T09:22:55.177Z,100.00
2023-03-02T09:25:21.474Z,100.00
2023-03-02T09:27:47.802Z,100.00
2023-03-02T09:30:15.308Z,100.00
2023-03-02T09:32:42.006Z,100.00
2023-03-02T09:35:10.328Z,100.00
2023-03-02T09:37:36.717Z,100.00
2023-03-02T09:40:03.261Z,100.00
2023-03-02T09:42:44.127Z,100.00
2023-03-02T09:45:17.578Z,100.00
2023-03-02T09:47:46.788Z,100.00
2023-03-02T09:50:25.296Z,100.00
2023-03-02T09:52:54.814Z,100.00
2023-03-02T09:55:23.478Z,100.00
2023-03-02T09:57:50.156Z,100.00
2023-03-02T10:00:20.199Z,100.00
2023-03-02T10:02:48.965Z,100.00
2023-03-02T10:05:17.104Z,100.00
2023-03-02T10:07:45.963Z,100.00
2023-03-02T10:10:18.554Z,100.00
2023-03-02T10:12:53.054Z,100.00
2023-03-02T10:15:22.983Z,100.00
2023-03-02T10:17:56.853Z,100.00
2023-03-02T10:20:34.158Z,100.00
2023-03-02T10:23:09.635Z,100.00
2023-03-02T10:25:42.408Z,100.00
2023-03-02T10:28:14.407Z,100.00
2023-03-02T10:30:41.150Z,100.00
2023-03-02T10:33:11.399Z,100.00
2023-03-02T10:35:38.358Z,100.00
2023-03-02T10:38:12.456Z,100.00
2023-03-02T10:40:41.004Z,100.00
2023-03-02T10:43:11.212Z,100.00
2023-03-02T10:45:37.518Z,100.00
2023-03-02T10:48:04.653Z,100.00
2023-03-02T10:50:31.077Z,100.00
2023-03-02T10:53:01.130Z,100.00
2023-03-02T10:55:29.628Z,100.00
2023-03-02T10:58:00.617Z,100.00
2023-03-02T11:00:28.591Z,100.00
2023-03-02T11:02:55.878Z,100.00
2023-03-02T11:05:26.380Z,100.00
2023-03-02T11:07:53.364Z,100.00
2023-03-02T11:10:20.670Z,100.00
2023-03-02T11:12:49.296Z,100.00
2023-03-02T11:15:17.704Z,100.00
2023-03-02T11:17:45.892Z,100.00
2023-03-02T11:20:14.669Z,100.00
2023-03-02T11:22:44.417Z,98.74
2023-03-02T11:25:16.249Z,100.00
2023-03-02T11:27:44.275Z,100.00
2023-03-02T11:30:14.798Z,100.00
2023-03-02T11:32:44.983Z,100.00
2023-03-02T11:35:13.604Z,100.00
2023-03-02T11:37:42.590Z,100.00
2023-03-02T11:40:20.090Z,100.00
2023-03-02T11:42:46.892Z,100.00
2023-03-02T11:45:20.259Z,100.00
2023-03-02T11:47:54.243Z,100.00
2023-03-02T11:50:25.460Z,99.28
2023-03-02T11:52:52.868Z,100.00
2023-03-02T11:55:20.614Z,100.00
2023-03-02T11:57:48.785Z,100.00
2023-03-02T12:00:21.737Z,100.00
2023-03-02T12:02:59.144Z,100.00
2023-03-02T12:05:27.381Z,100.00
2023-03-02T12:07:57.532Z,100.00
2023-03-02T12:10:25.740Z,100.00
2023-03-02T12:12:59.730Z,100.00
2023-03-02T12:15:27.909Z,100.00
2023-03-02T12:17:54.313Z,100.00
2023-03-02T12:20:26.272Z,100.00
2023-03-02T12:22:52.815Z,100.00
2023-03-02T12:25:25.714Z,100.00
2023-03-02T12:27:52.908Z,100.00
2023-03-02T12:30:24.293Z,100.00
2023-03-02T12:32:59.185Z,100.00
2023-03-02T12:35:29.391Z,100.00
2023-03-02T12:37:58.280Z,100.00
2023-03-02T12:40:31.520Z,100.00
2023-03-02T12:43:25.135Z,100.00
2023-03-02T12:46:12.317Z,100.00
2023-03-02T12:48:42.311Z,100.00
2023-03-02T12:51:17.715Z,100.00
2023-03-02T12:53:44.118Z,100.00
2023-03-02T12:56:20.810Z,98.28
2023-03-02T12:58:49.184Z,98.98
2023-03-02T13:01:20.255Z,98.18
2023-03-02T13:03:48.325Z,97.27
2023-03-02T13:06:18.955Z,98.18
2023-03-02T13:08:48.038Z,100.00
2023-03-02T13:11:20.145Z,100.00
2023-03-02T13:13:46.486Z,97.23
2023-03-02T13:16:19.699Z,96.51
2023-03-02T13:18:46.687Z,97.23
2023-03-02T13:21:14.765Z,100.00
2023-03-02T13:23:46.871Z,98.77
2023-03-02T13:26:23.609Z,100.00
2023-03-02T13:28:59.728Z,100.00
2023-03-02T13:31:26.252Z,98.33
2023-03-02T13:33:53.670Z,100.00
2023-03-02T13:36:20.906Z,100.00
2023-03-02T13:38:49.479Z,98.98
2023-03-02T13:41:21.114Z,100.00
2023-03-02T13:43:47.551Z,100.00
2023-03-02T13:46:27.458Z,100.00
2023-03-02T13:49:07.594Z,100.00
2023-03-02T13:51:37.665Z,100.00
2023-03-02T13:54:11.363Z,100.00
2023-03-02T13:56:39.237Z,94.63
2023-03-02T13:59:09.405Z,96.21
2023-03-02T14:01:36.256Z,95.58
2023-03-02T14:04:02.678Z,96.45
2023-03-02T14:06:29.108Z,91.31
2023-03-02T14:08:55.469Z,95.71
2023-03-02T14:11:23.160Z,94.76
2023-03-02T14:13:52.254Z,92.33
2023-03-02T14:16:18.792Z,91.98
2023-03-02T14:18:46.136Z,94.87
2023-03-02T14:21:13.694Z,95.08
2023-03-02T14:23:40.172Z,95.22
2023-03-02T14:26:15.420Z,93.32
2023-03-02T14:28:43.051Z,89.24
2023-03-02T14:31:09.784Z,92.95
2023-03-02T14:33:36.540Z,90.17
2023-03-02T14:36:04.111Z,89.08
2023-03-02T14:38:30.750Z,89.96
2023-03-02T14:40:57.207Z,87.27
2023-03-02T14:43:23.954Z,88.66
2023-03-02T14:45:51.648Z,91.91
2023-03-02T14:48:18.065Z,91.31
2023-03-02T14:50:46.303Z,90.50
2023-03-02T14:53:15.174Z,93.04
2023-03-02T14:55:41.945Z,93.49
2023-03-02T14:58:11.588Z,93.34
2023-03-02T15:00:38.017Z,90.97
2023-03-02T15:03:05.731Z,91.85
2023-03-02T15:05:32.206Z,90.09
2023-03-02T15:07:58.919Z,90.17
2023-03-02T15:10:25.561Z,92.79
2023-03-02T15:12:51.864Z,94.69
2023-03-02T15:15:18.278Z,90.22
2023-03-02T15:17:44.608Z,87.86
2023-03-02T15:20:14.693Z,85.07
2023-03-02T15:22:41.078Z,89.33
2023-03-02T15:25:07.614Z,86.81
2023-03-02T15:27:34.007Z,86.22
2023-03-02T15:30:00.312Z,89.39
2023-03-02T15:32:26.724Z,86.88
2023-03-02T15:34:53.050Z,84.57
2023-03-02T15:37:20.714Z,80.89
2023-03-02T15:39:47.034Z,81.22
2023-03-02T15:42:14.025Z,80.07
2023-03-02T15:44:40.588Z,78.90
2023-03-02T15:47:06.938Z,77.26
2023-03-02T15:49:33.275Z,80.64
2023-03-02T15:51:59.591Z,84.06
2023-03-02T15:54:27.554Z,80.36
2023-03-02T15:56:53.974Z,78.51
2023-03-02T15:59:21.032Z,80.36
2023-03-02T16:01:47.440Z,81.47
2023-03-02T16:04:13.788Z,79.72
2023-03-02T16:06:40.129Z,79.93
2023-03-02T16:09:06.840Z,79.11
2023-03-02T16:11:34.540Z,78.54
2023-03-02T16:14:00.843Z,77.52
2023-03-02T16:16:27.168Z,77.89
2023-03-02T16:18:54.275Z,78.21
2023-03-02T16:21:20.635Z,78.96
2023-03-02T16:23:46.990Z,80.03
2023-03-02T16:26:14.181Z,77.53
2023-03-02T16:28:42.419Z,78.75
2023-03-02T16:31:10.287Z,78.21
2023-03-02T16:33:36.773Z,81.70
2023-03-02T16:36:03.305Z,82.37
2023-03-02T16:38:29.670Z,87.94
2023-03-02T16:40:57.196Z,91.03
2023-03-02T16:43:23.841Z,90.95
2023-03-02T16:45:51.841Z,91.39
2023-03-02T16:48:18.327Z,97.03
2023-03-02T16:50:44.693Z,99.22
2023-03-02T16:53:11.018Z,100.00
2023-03-02T16:55:37.344Z,100.00
2023-03-02T16:58:03.688Z,100.00
2023-03-02T17:00:30.063Z,100.00
2023-03-02T17:02:57.721Z,100.00
2023-03-02T17:05:24.197Z,100.00
2023-03-02T17:07:50.485Z,100.00
2023-03-02T17:10:18.157Z,100.00
2023-03-02T17:12:44.474Z,100.00
2023-03-02T17:15:13.470Z,100.00
2023-03-02T17:17:40.043Z,100.00
2023-03-02T17:20:09.248Z,100.00
2023-03-02T17:22:35.578Z,100.00
2023-03-02T17:25:04.409Z,100.00
2023-03-02T17:27:31.042Z,100.00
2023-03-02T17:29:57.367Z,100.00
2023-03-02T17:32:23.781Z,100.00
2023-03-02T17:34:50.352Z,100.00
2023-03-02T17:37:18.088Z,100.00
2023-03-02T17:39:44.429Z,100.00
2023-03-02T17:42:10.836Z,100.00
2023-03-02T17:44:37.793Z,100.00
2023-03-02T17:47:04.269Z,100.00
2023-03-02T17:49:32.370Z,100.00
2023-03-02T17:51:58.644Z,100.00
2023-03-02T17:54:26.496Z,100.00
2023-03-02T17:56:52.903Z,100.00
2023-03-02T17:59:19.306Z,100.00
2023-03-02T18:01:45.637Z,100.00
2023-03-02T18:04:12.036Z,100.00
2023-03-02T18:06:38.384Z,100.00
2023-03-02T18:09:04.997Z,100.00
2023-03-02T18:11:32.902Z,100.00
2023-03-02T18:13:59.493Z,100.00
2023-03-02T18:16:26.926Z,100.00
2023-03-02T18:18:54.124Z,100.00
2023-03-02T18:21:20.930Z,100.00
2023-03-02T18:23:47.227Z,100.00
2023-03-02T18:26:14.114Z,100.00
2023-03-02T18:28:41.959Z,100.00
2023-03-02T18:31:08.756Z,100.00
2023-03-02T18:33:35.190Z,100.00
2023-03-02T18:36:01.842Z,100.00
2023-03-02T18:38:28.131Z,100.00
2023-03-02T18:40:54.607Z,100.00
2023-03-02T18:43:20.886Z,100.00
2023-03-02T18:45:48.575Z,100.00
2023-03-02T18:48:14.898Z,100.00
2023-03-02T18:50:41.916Z,100.00
2023-03-02T18:53:08.263Z,100.00
2023-03-02T18:55:35.017Z,100.00
2023-03-02T18:58:01.334Z,100.00
2023-03-02T19:00:28.104Z,100.00
2023-03-02T19:02:56.051Z,100.00
2023-03-02T19:05:23.026Z,100.00
2023-03-02T19:07:49.377Z,100.00
2023-03-02T19:10:15.775Z,100.00
2023-03-02T19:12:42.116Z,100.00
2023-03-02T19:15:09.473Z,100.00
2023-03-02T19:17:35.809Z,100.00
2023-03-02T19:20:03.669Z,100.00
2023-03-02T19:22:30.087Z,100.00
2023-03-02T19:24:56.442Z,100.00
2023-03-02T19:27:22.734Z,100.00
2023-03-02T19:29:49.068Z,100.00
2023-03-02T19:32:15.394Z,100.00
2023-03-02T19:34:41.789Z,100.00
2023-03-02T19:37:09.564Z,100.00
2023-03-02T19:39:35.897Z,100.00
2023-03-02T19:42:02.252Z,100.00
2023-03-02T19:44:28.556Z,100.00
2023-03-02T19:46:54.856Z,100.00
2023-03-02T19:49:21.163Z,100.00
2023-03-02T19:51:47.487Z,100.00
2023-03-02T19:54:15.166Z,100.00
2023-03-02T19:56:41.504Z,100.00
2023-03-02T19:59:07.826Z,100.00
2023-03-02T20:01:34.226Z,100.00
2023-03-02T20:04:00.704Z,100.00
2023-03-02T20:06:29.243Z,100.00
2023-03-02T20:08:55.890Z,100.00
2023-03-02T20:11:23.629Z,100.00
2023-03-02T20:13:49.930Z,100.00
2023-03-02T20:16:16.402Z,100.00
2023-03-02T20:18:42.750Z,100.00
2023-03-02T20:21:09.088Z,100.00
2023-03-02T20:23:35.419Z,100.00
2023-03-02T20:26:01.734Z,100.00
2023-03-02T20:28:29.595Z,100.00
2023-03-02T20:30:58.247Z,100.00
2023-03-02T20:33:27.153Z,100.00
2023-03-02T20:35:53.777Z,100.00
2023-03-02T20:38:22.440Z,100.00
2023-03-02T20:40:48.770Z,100.00
2023-03-02T20:43:15.700Z,100.00
2023-03-02T20:45:43.617Z,100.00
2023-03-02T20:48:10.488Z,100.00
2023-03-02T20:50:37.143Z,100.00
2023-03-02T20:53:04.127Z,100.00
2023-03-02T20:55:30.655Z,100.00
2023-03-02T20:57:57.242Z,100.00
2023-03-02T21:00:28.406Z,100.00
2023-03-02T21:02:56.402Z,100.00
2023-03-02T21:05:22.790Z,100.00
2023-03-02T21:07:49.596Z,100.00
2023-03-02T21:10:19.529Z,100.00
2023-03-02T21:12:46.002Z,100.00
2023-03-02T21:15:12.557Z,100.00
2023-03-02T21:17:38.873Z,100.00
2023-03-02T21:20:07.312Z,100.00
2023-03-02T21:22:33.983Z,100.00
2023-03-02T21:25:00.328Z,100.00
2023-03-02T21:27:26.710Z,100.00
2023-03-02T21:29:53.036Z,100.00
2023-03-02T21:32:19.420Z,100.00
2023-03-02T21:34:45.782Z,100.00
2023-03-02T21:37:13.408Z,100.00
2023-03-02T21:39:39.739Z,100.00
2023-03-02T21:42:06.167Z,100.00
2023-03-02T21:44:32.515Z,100.00
2023-03-02T21:46:58.907Z,100.00
2023-03-02T21:49:25.218Z,100.00
2023-03-02T21:51:51.547Z,100.00
2023-03-02T21:54:19.225Z,100.00
2023-03-02T21:56:45.551Z,100.00
2023-03-02T21:59:12.055Z,100.00
2023-03-02T22:01:38.643Z,100.00
2023-03-02T22:04:05.005Z,100.00
2023-03-02T22:06:32.024Z,100.00
2023-03-02T22:08:58.562Z,100.00
2023-03-02T22:11:27.036Z,100.00
2023-03-02T22:13:54.482Z,100.00
2023-03-02T22:16:21.376Z,100.00
2023-03-02T22:18:49.147Z,100.00
2023-03-02T22:21:27.682Z,100.00
2023-03-02T22:23:56.371Z,100.00
2023-03-02T22:26:22.698Z,100.00
2023-03-02T22:28:50.662Z,100.00
2023-03-02T22:31:18.898Z,100.00
2023-03-02T22:33:45.316Z,100.00
2023-03-02T22:36:14.115Z,100.00
2023-03-02T22:38:40.415Z,100.00
2023-03-02T22:41:13.049Z,100.00
2023-03-02T22:43:39.375Z,100.00
2023-03-02T22:46:09.131Z,100.00
2023-03-02T22:48:36.396Z,100.00
2023-03-02T22:51:11.856Z,100.00
2023-03-02T22:53:42.566Z,100.00
2023-03-02T22:56:21.178Z,100.00
2023-03-02T22:58:48.290Z,100.00
2023-03-02T23:01:26.378Z,100.00
2023-03-02T23:03:53.610Z,100.00
2023-03-02T23:06:23.204Z,100.00
2023-03-02T23:08:50.104Z,100.00
2023-03-02T23:11:17.512Z,100.00
2023-03-02T23:13:43.982Z,100.00
2023-03-02T23:16:14.444Z,100.00
2023-03-02T23:18:42.329Z,100.00
2023-03-02T23:21:14.589Z,100.00
2023-03-02T23:23:40.964Z,100.00
2023-03-02T23:26:07.285Z,100.00
2023-03-02T23:28:33.603Z,100.00
2023-03-02T23:30:59.919Z,100.00
2023-03-02T23:33:26.244Z,100.00
2023-03-02T23:35:53.949Z,100.00
2023-03-02T23:38:20.333Z,100.00
2023-03-02T23:40:46.649Z,100.00
2023-03-02T23:43:12.993Z,100.00
2023-03-02T23:45:39.477Z,100.00
2023-03-02T23:48:06.095Z,100.00
2023-03-02T23:50:32.430Z,100.00
2023-03-02T23:53:00.143Z,100.00
2023-03-02T23:55:26.547Z,100.00
2023-03-02T23:57:52.891Z,100.00
